Time;durP1;ratioP1;P1;durP2;ratioP2;P2;SDS_P1;SDS_P2;PMS_P1;PMS_P2;Temp;Humidity;BMP_temperature;BMP_pressure;BME280_temperature;BME280_humidity;BME280_pressure;Samples;Min_cycle;Max_cycle;Signal;HPM_P1;HPM_P2
2022/07/30 00:00:09;;;;;;;4.30;2.70;;;;;;;20.90;56.85;99521.09;344215;28;1680;-71
2022/07/30 00:00:21;;;;;;;2.83;2.53;;;;;;;20.88;56.86;99515.06;343695;28;1810;-72
2022/07/30 00:00:36;;;;;;;2.95;2.60;;;;;;;20.91;56.83;99519.31;344791;28;1882;-71
2022/07/30 00:00:48;;;;;;;2.80;2.50;;;;;;;20.91;56.74;99516.66;344346;28;2885;-72
2022/07/30 00:01:00;;;;;;;2.90;2.45;;;;;;;20.91;56.65;99509.56;344737;28;1883;-71
2022/07/30 00:01:12;;;;;;;2.60;2.40;;;;;;;20.92;57.14;99515.69;346033;28;1193;-72
2022/07/30 00:01:24;;;;;;;2.70;2.47;;;;;;;20.93;56.64;99523.50;346285;28;1022;-71
2022/07/30 00:01:36;;;;;;;2.50;2.30;;;;;;;20.95;56.79;99515.47;346307;28;1009;-72
2022/07/30 00:01:50;;;;;;;2.85;2.28;;;;;;;20.96;56.71;99511.84;344425;28;1788;-71
2022/07/30 00:02:02;;;;;;;2.80;2.33;;;;;;;20.99;56.85;99526.59;344561;28;1902;-72
2022/07/30 00:02:15;;;;;;;2.70;2.50;;;;;;;21.00;56.45;99521.22;344877;28;1174;-71
2022/07/30 00:02:27;;;;;;;2.97;2.67;;;;;;;21.01;56.27;99519.44;343846;28;2058;-71
2022/07/30 00:02:40;;;;;;;2.88;2.60;;;;;;;21.03;56.29;99518.34;344805;28;1332;-71
2022/07/30 00:02:52;;;;;;;2.50;2.30;;;;;;;21.01;56.27;99512.34;344736;28;1368;-72
2022/07/30 00:03:04;;;;;;;2.92;2.40;;;;;;;21.01;56.55;99522.06;345650;28;1287;-71
2022/07/30 00:03:16;;;;;;;3.10;2.50;;;;;;;21.04;56.29;99525.28;344712;28;1137;-71
2022/07/30 00:03:29;;;;;;;2.75;2.50;;;;;;;21.04;56.18;99524.47;343997;28;1642;-71
2022/07/30 00:03:41;;;;;;;2.55;2.35;;;;;;;21.04;56.08;99520.00;344707;28;1586;-71
2022/07/30 00:03:53;;;;;;;2.65;2.40;;;;;;;21.05;56.11;99521.72;344930;28;1164;-71
2022/07/30 00:04:05;;;;;;;2.80;2.50;;;;;;;21.08;56.18;99521.44;344828;28;1502;-72
2022/07/30 00:04:18;;;;;;;2.80;2.50;;;;;;;21.08;56.61;99524.09;345109;28;1232;-71
2022/07/30 00:04:31;;;;;;;2.78;2.50;;;;;;;21.07;56.28;99522.44;344816;28;1099;-72
2022/07/30 00:04:43;;;;;;;3.10;2.50;;;;;;;21.06;56.38;99523.38;344403;28;2240;-71
2022/07/30 00:04:55;;;;;;;3.03;2.40;;;;;;;21.06;56.36;99518.09;343908;28;1698;-71
2022/07/30 00:05:08;;;;;;;4.05;2.47;;;;;;;21.06;56.04;99520.72;345988;28;1102;-71
2022/07/30 00:05:20;;;;;;;4.45;2.67;;;;;;;21.08;56.07;99521.44;344665;28;1415;-71
2022/07/30 00:05:32;;;;;;;3.65;2.70;;;;;;;21.06;56.36;99520.72;344952;28;1022;-72
2022/07/30 00:05:44;;;;;;;3.38;2.47;;;;;;;21.08;56.22;99516.16;344640;28;1649;-71
2022/07/30 00:05:56;;;;;;;2.85;2.40;;;;;;;21.09;56.08;99525.78;343950;28;1945;-71
2022/07/30 00:06:08;;;;;;;2.88;2.60;;;;;;;21.06;56.63;99523.38;344326;28;2206;-71
2022/07/30 00:06:20;;;;;;;2.97;2.50;;;;;;;21.07;56.58;99527.72;345817;28;1130;-72
2022/07/30 00:06:32;;;;;;;2.93;2.50;;;;;;;21.06;56.90;99520.72;344486;28;1809;-71
2022/07/30 00:06:44;;;;;;;2.70;2.50;;;;;;;21.06;56.71;99522.53;344587;28;1786;-71
2022/07/30 00:06:56;;;;;;;2.70;2.50;;;;;;;21.02;57.12;99521.94;344834;28;1220;-71
2022/07/30 00:07:08;;;;;;;2.60;2.40;;;;;;;21.04;56.85;99524.47;344997;28;2177;-71
2022/07/30 00:07:20;;;;;;;2.75;2.55;;;;;;;21.04;56.80;99525.28;346262;28;1141;-71
2022/07/30 00:07:34;;;;;;;2.78;2.58;;;;;;;21.05;57.11;99527.00;346254;28;1019;-71
2022/07/30 00:07:46;;;;;;;2.90;2.60;;;;;;;21.06;57.16;99517.25;345282;28;1706;-71
2022/07/30 00:07:58;;;;;;;3.17;2.70;;;;;;;21.08;56.98;99521.44;343979;28;1633;-72
2022/07/30 00:08:10;;;;;;;3.00;2.60;;;;;;;21.08;56.86;99518.81;345424;28;1343;-71
2022/07/30 00:08:22;;;;;;;3.13;2.60;;;;;;;21.08;57.13;99524.09;344220;28;2083;-71
2022/07/30 00:08:34;;;;;;;3.25;2.50;;;;;;;21.09;56.87;99520.50;346142;28;1090;-71
2022/07/30 00:08:46;;;;;;;3.40;2.42;;;;;;;21.10;56.76;99519.53;344954;28;1706;-71
2022/07/30 00:08:58;;;;;;;3.60;2.47;;;;;;;21.10;57.26;99519.53;344816;28;2217;-72
2022/07/30 00:09:10;;;;;;;3.05;2.60;;;;;;;21.11;57.21;99515.94;344811;28;1091;-70
2022/07/30 00:09:22;;;;;;;2.80;2.60;;;;;;;21.11;56.83;99521.22;344801;28;1867;-71
2022/07/30 00:09:34;;;;;;;2.60;2.40;;;;;;;21.10;56.49;99516.88;345133;28;1006;-71
2022/07/30 00:09:47;;;;;;;2.63;2.42;;;;;;;21.11;56.48;99523.03;344614;28;2008;-72
2022/07/30 00:09:59;;;;;;;2.72;2.50;;;;;;;21.10;56.40;99524.81;345266;28;1101;-71
2022/07/30 00:10:11;;;;;;;2.80;2.50;;;;;;;21.10;56.58;99522.16;345152;28;1193;-71
2022/07/30 00:10:23;;;;;;;2.85;2.60;;;;;;;21.11;56.71;99526.50;345205;28;1259;-71
2022/07/30 00:10:35;;;;;;;3.10;2.50;;;;;;;21.11;57.10;99521.22;345142;28;1095;-71
2022/07/30 00:10:47;;;;;;;3.70;2.70;;;;;;;21.11;57.12;99523.88;344266;28;1762;-71
2022/07/30 00:11:01;;;;;;;3.10;2.70;;;;;;;21.13;56.59;99519.31;345091;28;1186;-71
2022/07/30 00:11:14;;;;;;;4.63;2.65;;;;;;;21.17;56.52;99529.63;344215;28;3394;-72
2022/07/30 00:11:26;;;;;;;4.07;2.50;;;;;;;21.18;56.35;99524.22;344076;28;2754;-72
2022/07/30 00:11:39;;;;;;;2.80;2.47;;;;;;;21.17;56.27;99525.19;344648;28;4466;-71
2022/07/30 00:11:51;;;;;;;2.65;2.42;;;;;;;21.20;55.77;99529.38;343468;28;2193;-71
2022/07/30 00:12:04;;;;;;;3.15;2.47;;;;;;;21.20;56.34;99530.22;344932;28;1832;-71
2022/07/30 00:12:17;;;;;;;3.25;2.40;;;;;;;21.12;56.27;99527.34;344803;28;2661;-71
2022/07/30 00:12:29;;;;;;;3.53;2.40;;;;;;;21.11;56.31;99525.69;344989;28;1330;-71
2022/07/30 00:12:41;;;;;;;3.28;2.70;;;;;;;21.14;56.15;99528.06;344503;28;1738;-71
2022/07/30 00:12:53;;;;;;;3.92;2.65;;;;;;;21.15;56.26;99527.94;344598;28;1510;-72
2022/07/30 00:13:05;;;;;;;3.67;2.58;;;;;;;21.14;56.13;99531.53;345161;28;1232;-71
2022/07/30 00:13:17;;;;;;;2.60;2.40;;;;;;;21.15;56.13;99527.94;346422;28;1272;-72
2022/07/30 00:13:29;;;;;;;2.88;2.53;;;;;;;21.15;56.13;99527.94;344551;28;1631;-71
2022/07/30 00:13:41;;;;;;;2.80;2.42;;;;;;;21.17;56.27;99525.19;346065;28;1572;-71
2022/07/30 00:13:54;;;;;;;2.55;2.30;;;;;;;21.18;56.16;99526.03;345959;28;1462;-71
2022/07/30 00:14:07;;;;;;;3.22;2.40;;;;;;;21.15;56.22;99533.25;343513;28;1003;-71
2022/07/30 00:14:19;;;;;;;3.40;2.50;;;;;;;21.19;56.23;99532.97;344194;28;1610;-71
2022/07/30 00:14:31;;;;;;;3.13;2.55;;;;;;;21.22;56.03;99538.03;344993;28;1098;-71
2022/07/30 00:14:43;;;;;;;5.20;2.72;;;;;;;21.20;56.21;99529.38;344935;28;1038;-71
2022/07/30 00:14:55;;;;;;;5.18;2.78;;;;;;;21.22;56.47;99532.75;344473;28;1282;-71
2022/07/30 00:15:08;;;;;;;3.08;2.53;;;;;;;21.18;56.30;99526.84;343951;28;1831;-71
2022/07/30 00:15:20;;;;;;;2.72;2.50;;;;;;;21.19;56.09;99528.56;345771;28;1062;-71
2022/07/30 00:15:32;;;;;;;3.30;2.42;;;;;;;21.15;56.17;99530.59;346392;28;1106;-71
2022/07/30 00:15:45;;;;;;;3.63;2.60;;;;;;;21.21;55.96;99531.06;345390;28;1791;-71
2022/07/30 00:15:57;;;;;;;3.13;2.63;;;;;;;21.18;55.78;99526.03;345819;28;2040;-71
2022/07/30 00:16:10;;;;;;;5.35;2.70;;;;;;;21.19;55.74;99532.97;343629;28;1258;-71
2022/07/30 00:16:22;;;;;;;4.75;2.60;;;;;;;21.20;55.45;99529.38;343386;28;1803;-71
2022/07/30 00:16:35;;;;;;;4.65;2.65;;;;;;;21.23;55.40;99534.41;344953;28;1522;-72
2022/07/30 00:16:47;;;;;;;2.90;2.60;;;;;;;21.23;55.46;99531.78;344382;28;1973;-71
2022/07/30 00:17:01;;;;;;;2.70;2.50;;;;;;;21.24;55.47;99530.84;344518;28;1363;-72
2022/07/30 00:17:14;;;;;;;3.55;2.63;;;;;;;21.25;55.23;99537.78;346122;28;1106;-71
2022/07/30 00:17:26;;;;;;;3.78;2.67;;;;;;;21.26;55.28;99534.19;345348;28;1927;-71
2022/07/30 00:17:39;;;;;;;2.90;2.60;;;;;;;21.25;55.18;99537.78;346163;28;1102;-71
2022/07/30 00:17:51;;;;;;;3.10;2.60;;;;;;;21.24;55.20;99538.75;343790;28;1700;-72
2022/07/30 00:18:03;;;;;;;3.22;2.70;;;;;;;21.23;55.16;99537.06;343957;28;1569;-71
2022/07/30 00:18:15;;;;;;;3.20;2.60;;;;;;;21.21;55.66;99531.06;344832;28;1174;-71
2022/07/30 00:18:27;;;;;;;3.17;2.50;;;;;;;21.15;55.79;99527.94;344845;28;1227;-71
2022/07/30 00:18:39;;;;;;;3.60;2.70;;;;;;;21.15;55.81;99527.94;345187;28;1290;-71
2022/07/30 00:18:53;;;;;;;3.25;2.80;;;;;;;21.16;55.70;99539.34;344396;28;1874;-71
2022/07/30 00:19:06;;;;;;;3.20;2.63;;;;;;;21.17;55.58;99529.63;344874;28;1049;-72
2022/07/30 00:19:19;;;;;;;3.08;2.50;;;;;;;21.18;55.64;99531.31;346190;28;1243;-71
2022/07/30 00:19:34;;;;;;;2.80;2.58;;;;;;;21.17;55.79;99534.91;346549;28;1065;-71
2022/07/30 00:19:46;;;;;;;3.00;2.63;;;;;;;21.17;55.69;99532.25;345124;28;1786;-71
2022/07/30 00:19:58;;;;;;;3.33;2.60;;;;;;;21.21;55.25;99531.06;344963;28;1603;-71
2022/07/30 00:20:11;;;;;;;3.25;2.72;;;;;;;21.22;55.34;99527.47;345101;28;1141;-71
2022/07/30 00:20:24;;;;;;;3.05;2.72;;;;;;;21.23;55.46;99535.28;345000;28;1863;-71
2022/07/30 00:20:39;;;;;;;3.63;3.17;;;;;;;21.26;55.23;99537.66;345185;28;1066;-71
2022/07/30 00:20:54;;;;;;;3.72;3.20;;;;;;;21.27;54.82;99538.50;345348;28;1050;-71
2022/07/30 00:21:07;;;;;;;3.50;2.90;;;;;;;21.14;55.26;99536.81;344093;28;1142;-71
2022/07/30 00:21:22;;;;;;;2.75;2.55;;;;;;;21.08;55.68;99531.19;344076;28;1175;-71
2022/07/30 00:21:47;;;;;;;2.80;2.60;;;;;;;21.14;55.44;99531.53;343958;28;1923;-72
2022/07/30 00:21:59;;;;;;;2.95;2.75;;;;;;;21.17;55.24;99534.91;345003;28;1259;-71
2022/07/30 00:22:11;;;;;;;3.33;2.90;;;;;;;21.17;55.22;99529.63;345244;28;1070;-71
2022/07/30 00:22:23;;;;;;;3.90;2.90;;;;;;;21.15;55.26;99533.25;345152;28;1413;-72
2022/07/30 00:22:35;;;;;;;3.80;2.80;;;;;;;21.17;55.22;99540.19;344529;28;2103;-71
2022/07/30 00:22:47;;;;;;;4.00;2.60;;;;;;;21.17;55.22;99529.63;345111;28;1140;-71
2022/07/30 00:23:03;;;;;;;3.85;2.67;;;;;;;21.13;55.06;99529.88;344879;28;1202;-71
2022/07/30 00:23:15;;;;;;;3.00;2.80;;;;;;;21.13;55.08;99535.16;343640;28;1324;-71
2022/07/30 00:23:27;;;;;;;2.80;2.58;;;;;;;21.12;55.29;99530.81;343795;28;1054;-71
2022/07/30 00:23:39;;;;;;;3.00;2.70;;;;;;;21.08;55.08;99537.31;343824;28;1283;-72
2022/07/30 00:24:11;;;;;;;3.00;2.70;;;;;;;21.06;55.28;99538.41;343878;28;1571;-71
2022/07/30 00:24:23;;;;;;;3.35;2.80;;;;;;;21.01;55.47;99530.00;343882;28;1242;-72
2022/07/30 00:24:35;;;;;;;3.25;2.70;;;;;;;21.02;55.58;99529.88;344089;28;1148;-71
2022/07/30 00:24:48;;;;;;;3.80;2.70;;;;;;;21.04;55.33;99535.88;344436;28;2012;-71
2022/07/30 00:25:00;;;;;;;3.80;2.70;;;;;;;21.02;55.20;99532.50;345040;28;1323;-71
2022/07/30 00:25:13;;;;;;;3.15;2.63;;;;;;;21.03;55.53;99531.56;345952;28;1050;-71
2022/07/30 00:25:25;;;;;;;2.67;2.47;;;;;;;21.02;55.51;99535.16;345307;28;1725;-71
2022/07/30 00:25:37;;;;;;;2.70;2.50;;;;;;;21.03;55.65;99531.56;344702;28;1805;-71
2022/07/30 00:25:49;;;;;;;2.75;2.55;;;;;;;21.04;55.37;99537.69;343641;28;1085;-71
2022/07/30 00:26:01;;;;;;;2.88;2.67;;;;;;;21.04;55.67;99540.31;344075;28;1300;-71
2022/07/30 00:26:13;;;;;;;3.00;2.75;;;;;;;21.01;55.85;99537.94;344748;28;1171;-71
2022/07/30 00:26:25;;;;;;;3.10;2.83;;;;;;;20.96;55.57;99538.28;344651;28;1551;-71
2022/07/30 00:26:37;;;;;;;3.33;2.80;;;;;;;20.94;56.16;99534.91;344889;28;1049;-71
2022/07/30 00:26:49;;;;;;;3.58;2.70;;;;;;;20.89;56.24;99542.38;344114;28;1783;-71
2022/07/30 00:27:01;;;;;;;4.43;2.70;;;;;;;20.66;56.65;99537.03;344741;28;1393;-71
2022/07/30 00:27:13;;;;;;;5.70;2.83;;;;;;;20.67;56.81;99538.72;344868;28;1529;-71
2022/07/30 00:27:25;;;;;;;5.00;2.80;;;;;;;20.71;56.66;99540.16;344856;28;1054;-71
2022/07/30 00:27:38;;;;;;;3.55;2.78;;;;;;;20.72;56.67;99536.56;345333;28;1292;-71
2022/07/30 00:27:50;;;;;;;3.10;2.80;;;;;;;20.74;56.60;99536.44;344349;28;1977;-71
2022/07/30 00:28:02;;;;;;;2.92;2.72;;;;;;;20.77;56.71;99538.03;344784;28;1744;-71
2022/07/30 00:28:14;;;;;;;2.67;2.47;;;;;;;20.78;56.75;99537.88;344563;28;1647;-71
2022/07/30 00:28:26;;;;;;;2.88;2.58;;;;;;;20.75;57.03;99535.50;343504;28;2767;-71
2022/07/30 00:28:38;;;;;;;3.33;2.95;;;;;;;20.75;57.29;99531.03;344969;28;3020;-71
2022/07/30 00:28:50;;;;;;;3.35;3.00;;;;;;;20.77;57.10;99538.88;343475;28;4463;-71
2022/07/30 00:29:04;;;;;;;3.45;3.08;;;;;;;20.79;56.78;99541.41;344600;28;3912;-71
2022/07/30 00:29:16;;;;;;;4.03;2.97;;;;;;;20.70;56.75;99538.47;343855;28;1147;-71
2022/07/30 00:29:28;;;;;;;3.83;3.00;;;;;;;20.60;57.28;99539.31;343554;28;1129;-71
2022/07/30 00:29:40;;;;;;;3.28;2.97;;;;;;;20.60;57.15;99536.66;343596;28;1050;-71
2022/07/30 00:29:55;;;;;;;3.50;2.92;;;;;;;20.67;57.04;99527.31;344077;28;1955;-70
2022/07/30 00:30:08;;;;;;;3.33;2.85;;;;;;;20.69;56.91;99531.53;346255;28;1081;-71
2022/07/30 00:30:20;;;;;;;2.97;2.72;;;;;;;20.71;56.83;99531.41;346262;28;1018;-71
2022/07/30 00:30:33;;;;;;;2.88;2.65;;;;;;;20.73;57.30;99537.41;346403;28;1241;-72
2022/07/30 00:30:45;;;;;;;3.30;2.85;;;;;;;20.77;56.93;99538.03;345409;28;1288;-71
2022/07/30 00:31:03;;;;;;;4.40;2.90;;;;;;;20.83;56.71;99538.38;346097;28;1223;-71
2022/07/30 00:31:15;;;;;;;5.20;2.80;;;;;;;20.86;56.59;99532.00;346353;28;1050;-71
2022/07/30 00:31:28;;;;;;;3.95;2.55;;;;;;;20.87;56.39;99533.72;346174;28;1059;-71
2022/07/30 00:31:40;;;;;;;2.85;2.60;;;;;;;20.87;56.63;99531.06;345720;28;1148;-71
2022/07/30 00:31:52;;;;;;;2.85;2.65;;;;;;;20.85;56.63;99528.53;346104;28;1297;-71
2022/07/30 00:32:04;;;;;;;3.15;2.85;;;;;;;20.84;56.59;99526.84;346155;28;1288;-72
2022/07/30 00:32:16;;;;;;;3.10;2.80;;;;;;;20.84;56.63;99524.19;345172;28;1050;-72
2022/07/30 00:32:28;;;;;;;3.03;2.75;;;;;;;20.83;56.29;99521.69;344122;28;1823;-72
2022/07/30 00:32:40;;;;;;;3.00;2.72;;;;;;;20.87;56.26;99529.25;344341;28;1232;-71
2022/07/30 00:32:52;;;;;;;2.80;2.60;;;;;;;20.88;55.99;99528.28;345168;28;1308;-71
2022/07/30 00:33:04;;;;;;;2.90;2.60;;;;;;;20.91;56.00;99532.50;344653;28;1376;-71
2022/07/30 00:33:19;;;;;;;3.70;2.70;;;;;;;20.91;56.03;99529.88;345274;28;1531;-72
2022/07/30 00:33:31;;;;;;;3.80;2.60;;;;;;;20.91;55.93;99532.50;344959;28;1176;-71
2022/07/30 00:33:43;;;;;;;2.78;2.50;;;;;;;20.91;55.89;99527.22;344672;28;1632;-71
2022/07/30 00:33:55;;;;;;;2.78;2.55;;;;;;;20.91;55.96;99529.88;345192;28;1066;-72
2022/07/30 00:34:07;;;;;;;3.50;2.78;;;;;;;20.88;55.90;99530.94;344770;28;1327;-71
2022/07/30 00:34:19;;;;;;;4.05;2.80;;;;;;;20.83;56.11;99530.47;345073;28;1179;-71
2022/07/30 00:34:31;;;;;;;3.95;2.80;;;;;;;20.80;56.06;99529.84;345096;28;1290;-71
2022/07/30 00:34:43;;;;;;;4.22;2.92;;;;;;;20.78;56.45;99529.13;345200;28;1264;-71
2022/07/30 00:34:55;;;;;;;3.97;2.95;;;;;;;20.76;56.51;99526.59;345132;28;1109;-72
2022/07/30 00:35:07;;;;;;;4.57;2.90;;;;;;;20.78;56.32;99521.19;344922;28;1874;-71
2022/07/30 00:35:19;;;;;;;4.68;2.88;;;;;;;20.78;56.28;99529.13;346496;28;1058;-71
2022/07/30 00:35:31;;;;;;;4.13;3.00;;;;;;;20.81;56.03;99534.19;346565;28;1240;-71
2022/07/30 00:35:44;;;;;;;4.10;3.22;;;;;;;20.82;56.13;99522.66;344766;28;1521;-71
2022/07/30 00:35:56;;;;;;;3.35;3.05;;;;;;;20.84;55.95;99529.50;343801;28;1376;-71
2022/07/30 00:36:08;;;;;;;2.92;2.72;;;;;;;20.87;56.10;99525.78;345073;28;1059;-71
2022/07/30 00:36:20;;;;;;;2.78;2.58;;;;;;;20.89;56.02;99526.50;345150;28;1015;-71
2022/07/30 00:36:32;;;;;;;2.70;2.50;;;;;;;20.90;56.01;99528.19;344549;28;1700;-71
2022/07/30 00:36:44;;;;;;;2.83;2.60;;;;;;;20.93;55.79;99533.25;344402;28;1794;-72
2022/07/30 00:36:56;;;;;;;3.13;2.78;;;;;;;20.92;55.80;99531.53;344566;28;2083;-71
2022/07/30 00:37:09;;;;;;;3.58;2.80;;;;;;;20.95;55.79;99531.31;343966;28;1577;-71
2022/07/30 00:37:21;;;;;;;3.05;2.60;;;;;;;20.95;55.87;99533.97;343769;28;1218;-70
2022/07/30 00:37:33;;;;;;;2.83;2.50;;;;;;;20.95;55.87;99529.50;345172;28;1106;-71
2022/07/30 00:37:45;;;;;;;2.90;2.60;;;;;;;20.96;55.67;99527.69;345090;28;1981;-71
2022/07/30 00:37:57;;;;;;;3.42;2.80;;;;;;;20.95;55.72;99524.22;345002;28;1785;-71
2022/07/30 00:38:09;;;;;;;3.72;2.75;;;;;;;20.96;55.57;99530.34;345073;28;1114;-71
2022/07/30 00:38:21;;;;;;;3.50;2.75;;;;;;;20.98;55.59;99531.06;344897;28;1093;-71
2022/07/30 00:38:33;;;;;;;3.17;2.60;;;;;;;21.00;55.47;99523.03;345145;28;1247;-71
2022/07/30 00:38:45;;;;;;;3.22;2.70;;;;;;;21.01;55.62;99532.66;344670;28;1672;-71
2022/07/30 00:38:57;;;;;;;3.28;2.90;;;;;;;21.01;55.69;99530.84;344766;28;1398;-71
2022/07/30 00:39:09;;;;;;;3.28;2.90;;;;;;;20.98;56.09;99520.50;345287;28;1102;-71
2022/07/30 00:39:21;;;;;;;3.10;2.80;;;;;;;20.98;55.98;99531.06;346397;28;1117;-71
2022/07/30 00:39:33;;;;;;;2.92;2.70;;;;;;;20.98;56.83;99527.59;346497;28;1225;-71
2022/07/30 00:39:45;;;;;;;2.80;2.60;;;;;;;20.98;56.72;99531.06;345570;28;1925;-72
2022/07/30 00:39:57;;;;;;;2.78;2.58;;;;;;;20.98;56.43;99531.06;344034;28;1855;-72
2022/07/30 00:40:09;;;;;;;2.72;2.53;;;;;;;20.98;56.51;99524.94;345088;28;1286;-72
2022/07/30 00:40:22;;;;;;;2.88;2.67;;;;;;;20.93;57.02;99523.50;344088;28;1866;-71
2022/07/30 00:40:34;;;;;;;2.83;2.63;;;;;;;20.94;57.03;99529.63;343605;28;1525;-71
2022/07/30 00:40:46;;;;;;;2.80;2.60;;;;;;;20.97;57.06;99524.13;344404;28;1249;-71
2022/07/30 00:40:58;;;;;;;2.85;2.63;;;;;;;20.97;56.95;99518.81;344135;28;1281;-71
2022/07/30 00:41:11;;;;;;;3.10;2.80;;;;;;;20.99;56.70;99523.97;345040;28;1078;-71
2022/07/30 00:41:26;;;;;;;3.20;2.90;;;;;;;20.95;57.30;99532.16;344997;28;1141;-71
2022/07/30 00:42:01;;;;;;;3.10;2.80;;;;;;;20.93;57.17;99528.78;344817;28;1198;-71
2022/07/30 00:42:13;;;;;;;4.03;3.08;;;;;;;20.93;57.42;99522.66;343803;28;1026;-72
2022/07/30 00:42:37;;;;;;;3.30;2.90;;;;;;;20.96;57.50;99522.41;343569;28;1301;-71
2022/07/30 00:42:49;;;;;;;2.95;2.60;;;;;;;20.95;57.41;99526.03;344472;28;1858;-71
2022/07/30 00:43:01;;;;;;;3.38;2.60;;;;;;;20.97;57.04;99523.25;345148;28;1386;-72
2022/07/30 00:43:15;;;;;;;3.13;2.70;;;;;;;20.98;56.80;99525.78;346548;28;1197;-70
2022/07/30 00:43:27;;;;;;;2.95;2.70;;;;;;;20.95;57.13;99518.94;346470;28;1061;-71
2022/07/30 00:43:39;;;;;;;2.75;2.55;;;;;;;20.98;57.13;99524.94;344983;28;2299;-71
2022/07/30 00:43:51;;;;;;;2.72;2.53;;;;;;;20.99;56.83;99527.47;344300;28;2007;-72
2022/07/30 00:44:03;;;;;;;2.60;2.40;;;;;;;20.99;56.93;99527.47;344684;28;1386;-71
2022/07/30 00:44:15;;;;;;;2.70;2.50;;;;;;;21.00;56.63;99517.75;343569;28;1087;-72
2022/07/30 00:44:28;;;;;;;2.97;2.53;;;;;;;21.00;56.98;99528.31;343435;28;1258;-71
2022/07/30 00:44:40;;;;;;;3.65;2.60;;;;;;;20.98;57.06;99525.78;344179;28;1875;-72
2022/07/30 00:44:52;;;;;;;3.33;2.65;;;;;;;20.98;56.95;99522.31;343924;28;3262;-71
2022/07/30 00:45:06;;;;;;;3.00;2.60;;;;;;;21.00;56.74;99530.94;343893;28;2997;-71
2022/07/30 00:45:18;;;;;;;2.88;2.60;;;;;;;21.01;57.07;99525.56;343829;28;4200;-72
2022/07/30 00:45:30;;;;;;;3.00;2.70;;;;;;;21.00;56.98;99520.38;343652;28;2723;-71
2022/07/30 00:45:46;;;;;;;3.10;2.80;;;;;;;21.01;57.41;99522.91;344620;28;1104;-71
2022/07/30 00:45:58;;;;;;;3.40;2.83;;;;;;;21.01;56.98;99524.72;343664;28;2467;-71
2022/07/30 00:46:10;;;;;;;3.22;2.70;;;;;;;21.01;57.25;99522.91;344670;28;1777;-71
2022/07/30 00:46:22;;;;;;;2.83;2.60;;;;;;;20.99;57.22;99524.84;346366;28;1074;-70
2022/07/30 00:46:34;;;;;;;2.88;2.67;;;;;;;20.98;57.16;99515.22;346518;28;1292;-72
2022/07/30 00:46:46;;;;;;;2.90;2.70;;;;;;;20.96;57.49;99522.41;345450;28;2094;-71
2022/07/30 00:46:58;;;;;;;2.92;2.70;;;;;;;20.97;57.46;99518.81;344027;28;2430;-71
2022/07/30 00:47:10;;;;;;;3.00;2.70;;;;;;;20.98;56.90;99520.50;345369;28;1023;-71
2022/07/30 00:47:22;;;;;;;3.03;2.72;;;;;;;21.00;57.12;99523.03;344826;28;1855;-71
2022/07/30 00:47:36;;;;;;;3.00;2.70;;;;;;;20.99;57.54;99516.03;344559;28;1055;-71
2022/07/30 00:47:48;;;;;;;3.03;2.65;;;;;;;21.00;57.35;99523.84;343732;28;2284;-71
2022/07/30 00:48:00;;;;;;;2.80;2.57;;;;;;;20.99;57.45;99519.53;344060;28;1959;-72
2022/07/30 00:48:13;;;;;;;2.83;2.53;;;;;;;20.97;57.57;99521.47;344077;28;2054;-72
2022/07/30 00:48:25;;;;;;;3.05;2.70;;;;;;;20.98;57.50;99519.66;343397;28;1058;-72
2022/07/30 00:48:37;;;;;;;3.75;2.83;;;;;;;20.97;57.40;99517.97;343388;28;1615;-72
2022/07/30 00:48:49;;;;;;;3.92;2.70;;;;;;;20.99;57.07;99518.69;344031;28;1558;-72
2022/07/30 00:49:01;;;;;;;3.65;2.60;;;;;;;20.99;57.26;99513.41;344155;28;1479;-72
2022/07/30 00:49:13;;;;;;;3.05;2.60;;;;;;;20.98;56.92;99520.50;345185;28;1017;-72
2022/07/30 00:49:25;;;;;;;3.00;2.70;;;;;;;20.96;56.95;99519.78;344539;28;1972;-71
2022/07/30 00:49:37;;;;;;;3.97;2.80;;;;;;;20.97;57.41;99510.03;345021;28;1270;-71
2022/07/30 00:49:55;;;;;;;3.80;2.55;;;;;;;20.97;57.36;99518.81;344896;28;1437;-71
2022/07/30 00:50:09;;;;;;;3.72;2.50;;;;;;;20.97;57.77;99516.19;345660;28;1139;-71
2022/07/30 00:50:21;;;;;;;3.92;2.60;;;;;;;20.98;57.64;99520.50;345803;28;1297;-71
2022/07/30 00:50:33;;;;;;;3.92;2.50;;;;;;;21.00;57.58;99523.03;345441;28;1769;-72
2022/07/30 00:50:45;;;;;;;3.00;2.60;;;;;;;20.98;58.05;99519.66;345940;28;1825;-71
2022/07/30 00:50:59;;;;;;;3.05;2.63;;;;;;;20.96;57.54;99522.41;344930;28;1681;-71
2022/07/30 00:51:11;;;;;;;3.47;2.78;;;;;;;20.97;57.52;99517.97;344611;28;1796;-72
2022/07/30 00:51:23;;;;;;;3.38;2.78;;;;;;;20.96;57.35;99517.13;344786;28;1573;-71
2022/07/30 00:51:35;;;;;;;2.75;2.55;;;;;;;20.96;57.62;99514.50;345059;28;1047;-71
2022/07/30 00:51:47;;;;;;;2.75;2.55;;;;;;;20.96;56.85;99517.13;344386;28;1035;-71
2022/07/30 00:52:00;;;;;;;3.10;2.80;;;;;;;20.96;56.49;99517.13;344476;28;1218;-71
2022/07/30 00:52:12;;;;;;;3.15;2.85;;;;;;;20.96;57.03;99522.41;344089;28;1975;-72
2022/07/30 00:52:24;;;;;;;3.85;2.70;;;;;;;20.96;57.08;99517.13;344773;28;1418;-72
2022/07/30 00:52:37;;;;;;;3.75;2.70;;;;;;;20.97;56.78;99513.53;344764;28;1223;-71
2022/07/30 00:52:49;;;;;;;4.38;2.70;;;;;;;20.98;57.15;99509.91;344184;28;1654;-71
2022/07/30 00:53:01;;;;;;;4.80;2.78;;;;;;;21.00;56.92;99518.56;344615;28;1495;-71
2022/07/30 00:53:13;;;;;;;4.68;2.67;;;;;;;20.98;57.40;99515.22;344895;28;1039;-71
2022/07/30 00:53:25;;;;;;;3.38;2.60;;;;;;;20.98;57.17;99515.22;344722;28;1033;-71
2022/07/30 00:53:37;;;;;;;2.90;2.60;;;;;;;20.97;57.06;99508.25;343858;28;1195;-72
2022/07/30 00:53:49;;;;;;;2.80;2.50;;;;;;;20.94;57.09;99516.41;344407;28;1907;-71
2022/07/30 00:54:01;;;;;;;2.92;2.67;;;;;;;20.94;56.91;99513.75;344201;28;1324;-71
2022/07/30 00:54:14;;;;;;;3.28;2.60;;;;;;;20.93;56.82;99510.28;346262;28;1074;-71
2022/07/30 00:54:26;;;;;;;3.80;2.70;;;;;;;20.93;56.79;99510.28;346038;28;1030;-71
2022/07/30 00:54:38;;;;;;;4.07;2.70;;;;;;;20.95;56.72;99516.28;346215;28;1062;-71
2022/07/30 00:54:50;;;;;;;3.95;2.72;;;;;;;20.98;56.61;99514.38;344101;28;1888;-71
2022/07/30 00:55:02;;;;;;;4.03;2.60;;;;;;;20.97;56.65;99505.63;344470;28;1400;-71
2022/07/30 00:55:15;;;;;;;4.10;2.67;;;;;;;20.96;56.55;99511.84;344743;28;1246;-72
2022/07/30 00:55:27;;;;;;;3.67;2.65;;;;;;;20.96;56.33;99517.13;344853;28;1067;-71
2022/07/30 00:55:39;;;;;;;3.83;2.70;;;;;;;20.98;56.46;99512.56;345307;28;1155;-72
2022/07/30 00:55:51;;;;;;;3.92;2.65;;;;;;;20.95;56.26;99515.47;345709;28;1537;-71
2022/07/30 00:56:04;;;;;;;3.10;2.60;;;;;;;20.99;56.14;99516.03;345890;28;1390;-72
2022/07/30 00:56:15;;;;;;;2.95;2.60;;;;;;;20.99;56.28;99511.63;346286;28;1244;-72
2022/07/30 00:56:28;;;;;;;2.90;2.60;;;;;;;21.00;56.03;99512.44;346029;28;2013;-72
2022/07/30 00:56:40;;;;;;;2.80;2.53;;;;;;;21.02;55.74;99513.16;347412;28;1302;-72
2022/07/30 00:56:52;;;;;;;2.70;2.50;;;;;;;21.03;55.71;99513.06;345385;28;1833;-72
2022/07/30 00:57:05;;;;;;;3.20;2.60;;;;;;;21.04;55.79;99506.78;346007;28;1537;-72
2022/07/30 00:57:17;;;;;;;3.20;2.70;;;;;;;21.04;55.79;99509.44;346945;28;1289;-72
2022/07/30 00:57:29;;;;;;;3.13;2.60;;;;;;;21.05;55.85;99508.50;347586;28;1046;-72
2022/07/30 00:57:41;;;;;;;3.35;2.47;;;;;;;21.04;55.62;99504.16;347246;28;1050;-72
2022/07/30 00:57:53;;;;;;;4.15;2.55;;;;;;;21.04;55.56;99508.59;344471;28;1922;-72
2022/07/30 00:58:05;;;;;;;3.70;2.65;;;;;;;21.02;55.85;99515.81;345686;28;1911;-72
2022/07/30 00:58:17;;;;;;;3.28;2.65;;;;;;;21.00;55.62;99513.28;345856;28;1070;-72
2022/07/30 00:58:31;;;;;;;2.90;2.60;;;;;;;21.00;55.68;99513.28;343078;28;1875;-72
2022/07/30 00:58:43;;;;;;;2.60;2.40;;;;;;;20.98;55.68;99515.22;342420;28;1748;-72
2022/07/30 00:58:55;;;;;;;2.75;2.55;;;;;;;20.98;55.67;99509.09;343554;28;1860;-72
2022/07/30 00:59:07;;;;;;;2.83;2.63;;;;;;;20.98;55.86;99504.63;344740;28;1190;-72
2022/07/30 00:59:19;;;;;;;3.05;2.75;;;;;;;20.98;55.69;99512.56;344662;28;1566;-72
2022/07/30 00:59:32;;;;;;;3.05;2.75;;;;;;;20.97;55.63;99510.91;344214;28;2448;-71
2022/07/30 00:59:44;;;;;;;3.10;2.80;;;;;;;20.97;55.90;99518.81;344738;28;1186;-71
2022/07/30 00:59:57;;;;;;;3.25;2.80;;;;;;;20.95;55.93;99513.66;344806;28;1191;-71
2022/07/30 01:00:13;;;;;;;4.05;2.72;;;;;;;20.85;55.95;99503.94;344904;28;1079;-72
2022/07/30 01:00:25;;;;;;;4.05;2.80;;;;;;;20.87;55.93;99513.41;345164;28;1064;-71
2022/07/30 01:00:37;;;;;;;3.40;2.90;;;;;;;20.87;55.86;99512.56;345233;28;1074;-72
2022/07/30 01:00:49;;;;;;;3.28;2.97;;;;;;;20.88;55.99;99508.97;344661;28;1864;-72
2022/07/30 01:01:01;;;;;;;3.13;2.83;;;;;;;20.89;55.95;99515.94;344411;28;1290;-72